This is the latest recevied weather packets stored in our database for station/object KA7KDX-4. If no packets are shown the sender has not sent any weather packets the latest 10 day(s).
| Time | Temp. | Humidity | Pressure | Rain* | Wind** | Luminosity | Snow |
|---|---|---|---|---|---|---|---|
| 1778054105 | 9.44° C | 80% | 1011.3 hPa | 0 mm | - | - | - |
| 1778053805 | 9.44° C | 76% | 1011.1 hPa | 0 mm | - | - | - |
| 1778053506 | 9.44° C | 75% | 1011.1 hPa | 0 mm | - | - | - |
| 1778053206 | 9.44° C | 77% | 1011.1 hPa | 0 mm | - | - | - |
| 1778052906 | 9.44° C | 79% | 1011.3 hPa | 0 mm | - | - | - |
| 1778052606 | 9.44° C | 78% | 1011.1 hPa | 0 mm | - | - | - |
| 1778052306 | 9.44° C | 79% | 1010.9 hPa | 0 mm | - | - | - |
| 1778052006 | 9.44° C | 80% | 1011 hPa | 0 mm | - | - | - |
| 1778051705 | 8.89° C | 82% | 1011.3 hPa | 0 mm | - | - | - |
| 1778051405 | 9.44° C | 84% | 1011.4 hPa | 0 mm | - | - | - |
| 1778051105 | 9.44° C | 84% | 1011.4 hPa | 0 mm | - | - | - |
| 1778050805 | 9.44° C | 83% | 1011.2 hPa | 0 mm | - | - | - |
| 1778050506 | 9.44° C | 82% | 1011 hPa | 0.76 mm | - | - | - |
| 1778050206 | 10° C | 81% | 1011.1 hPa | 1.52 mm | - | - | - |
| 1778049906 | 10° C | 80% | 1011 hPa | 3.05 mm | - | - | - |
| 1778049606 | 10° C | 78% | 1011.1 hPa | 4.06 mm | - | - | - |
| 1778049306 | 10.56° C | 77% | 1011.1 hPa | 4.83 mm | - | - | - |
| 1778049007 | 10.56° C | 75% | 1011.1 hPa | 5.84 mm | - | - | - |
| 1778048705 | 10.56° C | 76% | 1011 hPa | 6.86 mm | - | - | - |
| 1778048405 | 10° C | 78% | 1011 hPa | 6.6 mm | - | - | - |
| 1778048105 | 9.44° C | 82% | 1011.2 hPa | 6.1 mm | - | - | - |
| 1778047806 | 10° C | 80% | 1011.3 hPa | 5.59 mm | - | - | - |
| 1778047506 | 10° C | 77% | 1011.1 hPa | 4.83 mm | - | - | - |
| 1778047206 | 10.56° C | 75% | 1010.8 hPa | 3.3 mm | - | - | - |
| 1778046906 | 11.11° C | 73% | 1010.3 hPa | 2.03 mm | - | - | - |
* Rain latest hour (hover to see other rain measurements)
** Current wind speed in m/s (hover to see current wind gust speed)